Time;durP1;ratioP1;P1;durP2;ratioP2;P2;SDS_P1;SDS_P2;PMS_P1;PMS_P2;Temp;Humidity;BMP_temperature;BMP_pressure;BME280_temperature;BME280_humidity;BME280_pressure;Samples;Min_cycle;Max_cycle;Signal;HPM_P1;HPM_P2
2022/07/11 00:02:15;;;;;;;5.85;3.72;;;;;11.50;94816.00;;;;7390019;19;20133;-76
2022/07/11 00:04:49;;;;;;;3.60;3.08;;;;;11.70;94806.00;;;;7392247;19;20621;-76
2022/07/11 00:07:17;;;;;;;3.95;3.40;;;;;11.70;94817.00;;;;7396009;19;20611;-75
2022/07/11 00:09:45;;;;;;;3.80;3.40;;;;;11.80;94807.00;;;;7391046;19;20203;-76
2022/07/11 00:12:21;;;;;;;6.45;3.20;;;;;11.70;94808.00;;;;7388192;19;20651;-75
2022/07/11 00:14:56;;;;;;;3.20;2.83;;;;;11.50;94804.00;;;;7391087;19;20472;-76
2022/07/11 00:17:37;;;;;;;5.07;3.38;;;;;11.40;94797.00;;;;7389078;19;20626;-76
2022/07/11 00:20:05;;;;;;;5.57;2.55;;;;;11.20;94800.00;;;;7389260;19;20487;-75
2022/07/11 00:22:39;;;;;;;4.00;3.03;;;;;11.40;94805.00;;;;7389043;19;20144;-75
2022/07/11 00:25:07;;;;;;;4.20;3.50;;;;;11.30;94801.00;;;;7388312;19;20631;-76
2022/07/11 00:27:35;;;;;;;3.80;3.42;;;;;11.20;94803.00;;;;7388989;19;20137;-76
2022/07/11 00:30:17;;;;;;;3.88;3.50;;;;;11.30;94804.00;;;;7387245;19;20144;-76
2022/07/11 00:32:45;;;;;;;5.40;3.88;;;;;11.20;94798.00;;;;7394476;19;20179;-76
2022/07/11 00:35:19;;;;;;;5.32;3.80;;;;;11.20;94797.00;;;;7392817;19;20147;-76
2022/07/11 00:37:46;;;;;;;3.65;3.20;;;;;11.20;94799.00;;;;7391257;19;20749;-76
2022/07/11 00:40:14;;;;;;;5.70;3.47;;;;;11.00;94794.00;;;;7390775;19;20148;-76
2022/07/11 00:42:48;;;;;;;5.25;3.67;;;;;10.90;94791.00;;;;7390675;19;20587;-76
2022/07/11 00:45:15;;;;;;;4.55;3.30;;;;;10.90;94784.00;;;;7389966;19;20142;-75
2022/07/11 00:47:43;;;;;;;5.20;3.33;;;;;10.90;94781.00;;;;7395724;19;20165;-76
2022/07/11 00:50:17;;;;;;;3.65;3.35;;;;;10.80;94786.00;;;;7388742;19;20140;-76
2022/07/11 00:52:45;;;;;;;3.70;3.10;;;;;10.80;94794.00;;;;7389838;19;20151;-76
2022/07/11 00:55:13;;;;;;;4.32;2.92;;;;;10.80;94785.00;;;;7390106;19;20129;-76
2022/07/11 00:57:48;;;;;;;3.17;2.83;;;;;10.70;94788.00;;;;7393094;19;20140;-76
2022/07/11 01:00:17;;;;;;;6.40;3.60;;;;;10.70;94777.00;;;;7397427;19;20137;-76
2022/07/11 01:02:45;;;;;;;4.18;3.78;;;;;10.80;94783.00;;;;7397432;19;20180;-76
2022/07/11 01:05:19;;;;;;;4.82;4.22;;;;;10.80;94777.00;;;;7396935;19;20132;-76
2022/07/11 01:07:47;;;;;;;3.92;3.53;;;;;11.00;94772.00;;;;7397302;19;20148;-76
2022/07/11 01:10:14;;;;;;;7.38;3.60;;;;;10.90;94772.00;;;;7396987;19;20143;-76
2022/07/11 01:12:48;;;;;;;4.00;3.70;;;;;10.90;94773.00;;;;7399878;19;20746;-76
2022/07/11 01:15:24;;;;;;;5.15;4.32;;;;;10.90;94770.00;;;;7394988;19;20172;-76
2022/07/11 01:18:05;;;;;;;10.43;4.95;;;;;10.90;94774.00;;;;7395704;19;20136;-76
2022/07/11 01:20:32;;;;;;;6.15;5.55;;;;;10.90;94772.00;;;;7396963;19;20463;-76
2022/07/11 01:23:07;;;;;;;6.85;5.53;;;;;11.00;94770.00;;;;7398575;19;20127;-76
2022/07/11 01:25:34;;;;;;;5.35;4.70;;;;;11.10;94775.00;;;;7395267;19;20127;-76
2022/07/11 01:28:06;;;;;;;5.50;5.00;;;;;11.20;94771.00;;;;7396625;19;20189;-76
2022/07/11 01:30:40;;;;;;;9.25;6.22;;;;;11.20;94768.00;;;;7398184;19;20150;-76
2022/07/11 01:33:08;;;;;;;8.73;6.20;;;;;11.40;94760.00;;;;7395668;19;20647;-76
2022/07/11 01:35:35;;;;;;;7.32;6.63;;;;;11.40;94757.00;;;;7396196;19;20636;-76
2022/07/11 01:38:09;;;;;;;6.57;5.97;;;;;11.50;94758.00;;;;7399538;19;20133;-76
2022/07/11 01:40:37;;;;;;;7.88;6.40;;;;;11.60;94756.00;;;;7395469;19;20133;-76
2022/07/11 01:43:04;;;;;;;12.00;7.43;;;;;11.70;94758.00;;;;7395141;19;20125;-75
2022/07/11 01:45:38;;;;;;;14.68;7.82;;;;;11.80;94756.00;;;;7397309;19;20616;-76
2022/07/11 01:48:05;;;;;;;7.72;6.93;;;;;12.00;94758.00;;;;7394847;19;20124;-76
2022/07/11 01:50:35;;;;;;;9.32;7.63;;;;;12.10;94753.00;;;;7395124;19;20256;-75
2022/07/11 01:53:10;;;;;;;9.20;6.45;;;;;12.10;94753.00;;;;7397825;19;20125;-76
2022/07/11 01:55:37;;;;;;;8.45;7.00;;;;;12.20;94750.00;;;;7395255;19;20152;-76
2022/07/11 01:58:25;;;;;;;8.50;7.35;;;;;12.30;94750.00;;;;7395618;19;20128;-76
2022/07/11 02:00:59;;;;;;;8.45;7.15;;;;;12.30;94750.00;;;;7394945;19;20141;-76
2022/07/11 02:03:27;;;;;;;11.52;5.93;;;;;12.30;94751.00;;;;7396957;19;20125;-75
2022/07/11 02:05:54;;;;;;;9.38;6.28;;;;;12.40;94751.00;;;;7400196;19;20129;-76
2022/07/11 02:08:28;;;;;;;10.13;7.80;;;;;12.50;94743.00;;;;7393266;19;20161;-76
2022/07/11 02:10:55;;;;;;;7.32;6.63;;;;;12.50;94743.00;;;;7395620;19;20156;-76
2022/07/11 02:13:23;;;;;;;6.10;5.50;;;;;12.50;94744.00;;;;7393983;19;20132;-76
2022/07/11 02:16:04;;;;;;;6.80;6.05;;;;;12.50;94741.00;;;;7394487;19;20607;-75
2022/07/11 02:18:34;;;;;;;9.85;6.28;;;;;12.60;94753.00;;;;7394631;19;20859;-75
2022/07/11 02:21:09;;;;;;;9.63;7.43;;;;;12.50;94749.00;;;;7394147;19;20148;-77
2022/07/11 02:23:36;;;;;;;9.15;6.28;;;;;12.60;94744.00;;;;7395623;19;20132;-76
2022/07/11 02:26:04;;;;;;;8.27;6.43;;;;;12.60;94751.00;;;;7393143;19;20136;-76
2022/07/11 02:28:39;;;;;;;9.70;6.20;;;;;12.60;94748.00;;;;7396531;19;20460;-76
2022/07/11 02:31:07;;;;;;;8.32;6.35;;;;;12.60;94744.00;;;;7394107;19;20197;-76
2022/07/11 02:33:34;;;;;;;9.50;7.07;;;;;12.60;94744.00;;;;7398291;19;20136;-76
2022/07/11 02:36:10;;;;;;;9.52;6.70;;;;;12.60;94740.00;;;;7394820;19;20152;-76
2022/07/11 02:38:37;;;;;;;8.68;6.75;;;;;12.60;94743.00;;;;7395533;19;20461;-76
2022/07/11 02:41:08;;;;;;;7.57;6.45;;;;;12.70;94749.00;;;;7393183;19;20492;-76
2022/07/11 02:43:42;;;;;;;8.10;6.22;;;;;12.70;94744.00;;;;7394337;19;20588;-76
2022/07/11 02:46:10;;;;;;;8.57;6.50;;;;;12.70;94747.00;;;;7392274;19;20160;-76
2022/07/11 02:48:38;;;;;;;7.72;6.65;;;;;12.70;94754.00;;;;7395267;19;20635;-76
2022/07/11 02:51:12;;;;;;;9.57;6.97;;;;;12.70;94745.00;;;;7393294;19;20212;-75
2022/07/11 02:53:42;;;;;;;9.57;6.95;;;;;12.70;94746.00;;;;7394257;19;20695;-76
2022/07/11 02:56:17;;;;;;;7.35;6.55;;;;;12.80;94750.00;;;;7392891;19;20865;-76
2022/07/11 02:58:51;;;;;;;9.90;6.40;;;;;12.70;94751.00;;;;7395007;19;20121;-76
2022/07/11 03:01:19;;;;;;;7.10;5.72;;;;;12.80;94750.00;;;;7397872;19;20160;-76
2022/07/11 03:03:47;;;;;;;8.10;6.72;;;;;12.80;94759.00;;;;7392962;19;20121;-76
2022/07/11 03:06:21;;;;;;;7.88;6.45;;;;;12.80;94754.00;;;;7391120;19;21009;-75
2022/07/11 03:08:49;;;;;;;7.68;6.78;;;;;12.80;94749.00;;;;7393609;19;20144;-76
2022/07/11 03:11:16;;;;;;;9.63;6.38;;;;;12.80;94751.00;;;;7391474;19;20635;-76
2022/07/11 03:13:57;;;;;;;8.52;6.53;;;;;12.80;94743.00;;;;7391745;19;20172;-76
2022/07/11 03:16:31;;;;;;;11.10;6.88;;;;;12.80;94747.00;;;;7395252;19;20144;-76
2022/07/11 03:19:05;;;;;;;8.98;7.03;;;;;12.70;94741.00;;;;7393535;19;20147;-76
2022/07/11 03:21:33;;;;;;;6.63;5.95;;;;;12.80;94744.00;;;;7391626;19;20486;-76
2022/07/11 03:24:01;;;;;;;9.05;7.82;;;;;12.80;94738.00;;;;7392114;19;20133;-75
2022/07/11 03:26:35;;;;;;;11.35;7.15;;;;;12.80;94739.00;;;;7393353;19;20132;-76
2022/07/11 03:29:03;;;;;;;8.23;6.45;;;;;12.80;94735.00;;;;7392624;19;20153;-76
2022/07/11 03:31:30;;;;;;;12.18;8.20;;;;;12.80;94734.00;;;;7393686;19;20156;-75
2022/07/11 03:34:04;;;;;;;7.97;7.18;;;;;12.80;94738.00;;;;7392629;19;20148;-75
2022/07/11 03:36:31;;;;;;;8.88;7.40;;;;;12.80;94739.00;;;;7392740;19;20129;-76
2022/07/11 03:38:59;;;;;;;10.07;7.30;;;;;12.80;94734.00;;;;7392428;19;20129;-76
2022/07/11 03:41:33;;;;;;;12.60;8.05;;;;;12.80;94738.00;;;;7392375;19;20152;-76
2022/07/11 03:44:01;;;;;;;12.90;8.05;;;;;12.80;94743.00;;;;7393457;19;20156;-76
2022/07/11 03:46:28;;;;;;;9.73;8.15;;;;;12.80;94742.00;;;;7391829;19;20156;-76
2022/07/11 03:49:02;;;;;;;10.55;7.63;;;;;12.80;94740.00;;;;7396820;19;20588;-76
2022/07/11 03:51:30;;;;;;;11.35;8.40;;;;;12.80;94751.00;;;;7389307;19;20129;-76
2022/07/11 03:53:58;;;;;;;11.43;8.40;;;;;12.80;94737.00;;;;7391160;19;20143;-77
2022/07/11 03:56:32;;;;;;;8.85;7.95;;;;;12.90;94747.00;;;;7391475;19;20140;-76
2022/07/11 03:59:00;;;;;;;9.88;8.35;;;;;12.90;94735.00;;;;7394905;19;20153;-76
2022/07/11 04:01:27;;;;;;;7.95;7.15;;;;;13.00;94740.00;;;;7390679;19;20162;-76
2022/07/11 04:04:01;;;;;;;14.45;8.52;;;;;13.00;94737.00;;;;7392701;19;20559;-76
2022/07/11 04:06:29;;;;;;;8.35;7.43;;;;;13.10;94737.00;;;;7389798;19;20137;-76
2022/07/11 04:08:56;;;;;;;11.18;8.57;;;;;13.00;94739.00;;;;7390456;19;20607;-76
2022/07/11 04:11:30;;;;;;;8.43;7.63;;;;;13.10;94736.00;;;;7392474;19;20180;-75
2022/07/11 04:14:05;;;;;;;9.50;7.78;;;;;13.10;94735.00;;;;7389553;19;20149;-76
2022/07/11 04:16:39;;;;;;;11.77;7.18;;;;;13.20;94737.00;;;;7390863;19;20580;-76
2022/07/11 04:19:07;;;;;;;9.82;7.32;;;;;13.20;94739.00;;;;7390237;19;20141;-76
2022/07/11 04:21:34;;;;;;;10.00;7.40;;;;;13.20;94728.00;;;;7390420;19;20454;-76
2022/07/11 04:24:08;;;;;;;12.15;7.55;;;;;13.20;94736.00;;;;7390233;19;20136;-76
2022/07/11 04:26:36;;;;;;;8.32;7.53;;;;;13.20;94733.00;;;;7390289;19;20574;-75
2022/07/11 04:29:03;;;;;;;9.50;7.93;;;;;13.20;94738.00;;;;7391544;19;20113;-75
2022/07/11 04:31:37;;;;;;;8.43;7.63;;;;;13.20;94732.00;;;;7389890;19;20141;-76
2022/07/11 04:34:05;;;;;;;8.88;7.95;;;;;13.20;94735.00;;;;7388702;19;20137;-75
2022/07/11 04:36:32;;;;;;;9.35;7.70;;;;;13.30;94732.00;;;;7391620;19;20147;-76
2022/07/11 04:39:06;;;;;;;9.27;7.47;;;;;13.20;94731.00;;;;7393285;19;20149;-76
2022/07/11 04:41:34;;;;;;;9.02;7.20;;;;;13.30;94728.00;;;;7389808;19;20158;-75
2022/07/11 04:44:01;;;;;;;8.25;6.20;;;;;13.40;94734.00;;;;7389894;19;20488;-75
2022/07/11 04:46:35;;;;;;;10.02;7.00;;;;;13.40;94726.00;;;;7389207;19;20615;-76
2022/07/11 04:49:03;;;;;;;10.70;7.82;;;;;13.50;94723.00;;;;7389601;19;20129;-76
2022/07/11 04:51:31;;;;;;;6.30;5.65;;;;;13.50;94728.00;;;;7390065;19;20141;-76
2022/07/11 04:54:05;;;;;;;9.80;7.18;;;;;13.70;94730.00;;;;7393195;19;20145;-76
2022/07/11 04:56:33;;;;;;;11.00;7.88;;;;;13.60;94724.00;;;;7389121;19;20159;-76
2022/07/11 04:59:01;;;;;;;8.07;7.22;;;;;13.50;94728.00;;;;7383115;19;20129;-76
2022/07/11 05:01:35;;;;;;;10.50;7.53;;;;;13.50;94725.00;;;;7388083;19;20165;-76
2022/07/11 05:04:03;;;;;;;8.63;7.00;;;;;13.50;94726.00;;;;7391247;19;20128;-76
2022/07/11 05:06:30;;;;;;;8.07;5.75;;;;;13.50;94725.00;;;;7390341;19;20170;-76
2022/07/11 05:09:07;;;;;;;9.70;6.28;;;;;13.50;94732.00;;;;7391110;19;20183;-76
2022/07/11 05:11:35;;;;;;;6.50;5.78;;;;;13.50;94737.00;;;;7388839;19;20200;-76
2022/07/11 05:14:03;;;;;;;6.22;5.55;;;;;13.50;94741.00;;;;7388562;19;20172;-76
2022/07/11 05:16:44;;;;;;;8.55;6.60;;;;;13.60;94744.00;;;;7391027;19;20140;-76
2022/07/11 05:19:11;;;;;;;7.97;6.63;;;;;13.70;94745.00;;;;7390428;19;20140;-76
2022/07/11 05:21:45;;;;;;;8.05;6.82;;;;;14.00;94745.00;;;;7388598;19;20627;-76
2022/07/11 05:26:53;;;;;;;7.93;6.15;;;;;14.20;94746.00;;;;6919137;19;9907624;-73
2022/07/11 05:29:28;;;;;;;6.80;5.63;;;;;14.30;94746.00;;;;7429745;19;20194;-74
2022/07/11 05:31:56;;;;;;;4.40;4.00;;;;;14.30;94747.00;;;;7428709;19;20615;-74
2022/07/11 05:34:25;;;;;;;6.30;4.30;;;;;14.20;94743.00;;;;7428159;19;20204;-75
2022/07/11 05:36:59;;;;;;;3.80;3.40;;;;;14.30;94750.00;;;;7429797;19;20123;-74
2022/07/11 05:39:27;;;;;;;4.20;3.03;;;;;14.40;94754.00;;;;7429684;19;20136;-75
2022/07/11 05:41:55;;;;;;;3.50;3.20;;;;;14.50;94752.00;;;;7427692;19;20124;-75
2022/07/11 05:44:29;;;;;;;2.83;2.40;;;;;14.80;94750.00;;;;7426060;19;20144;-75
2022/07/11 05:47:04;;;;;;;2.88;2.58;;;;;14.90;94749.00;;;;7428166;19;20149;-75
2022/07/11 05:49:39;;;;;;;3.75;2.40;;;;;15.00;94747.00;;;;7426722;19;20136;-75
2022/07/11 05:52:07;;;;;;;2.85;2.53;;;;;15.30;94743.00;;;;7424176;19;20152;-76
2022/07/11 05:54:35;;;;;;;2.50;1.85;;;;;15.60;94753.00;;;;7423379;19;20145;-77
2022/07/11 05:57:09;;;;;;;2.40;1.80;;;;;15.90;94742.00;;;;7429231;19;20151;-75
2022/07/11 05:59:39;;;;;;;3.15;2.03;;;;;16.00;94743.00;;;;7426269;19;20710;-74
2022/07/11 06:02:07;;;;;;;1.92;1.52;;;;;15.90;94742.00;;;;7421319;19;20190;-75
2022/07/11 06:04:44;;;;;;;1.85;1.50;;;;;16.00;94746.00;;;;7424291;19;20160;-75
2022/07/11 06:08:40;;;;;;;1.77;1.40;;;;;15.90;94734.00;;;;7424977;19;20618;-76
2022/07/11 06:10:09;;;;;;;2.38;1.50;;;;;16.10;94748.00;;;;7427713;19;20220;-76
2022/07/11 06:12:36;;;;;;;1.50;1.40;;;;;16.20;94748.00;;;;7422846;19;20199;-75
2022/07/11 06:15:05;;;;;;;2.53;1.50;;;;;16.10;94750.00;;;;7425894;19;20533;-75
2022/07/11 06:17:39;;;;;;;3.10;1.50;;;;;16.40;94751.00;;;;7427854;19;20152;-74
2022/07/11 06:20:08;;;;;;;1.90;1.50;;;;;16.60;94749.00;;;;7426285;19;20128;-75
2022/07/11 06:22:35;;;;;;;2.03;1.40;;;;;16.90;94749.00;;;;7427493;19;20155;-76
2022/07/11 06:25:16;;;;;;;1.52;1.42;;;;;17.00;94752.00;;;;7425559;19;20727;-75
2022/07/11 06:27:44;;;;;;;1.33;1.23;;;;;17.20;94763.00;;;;7425626;19;20139;-75
2022/07/11 06:30:19;;;;;;;1.50;1.30;;;;;17.40;94749.00;;;;7426850;19;20128;-75
2022/07/11 06:32:47;;;;;;;1.38;1.27;;;;;17.50;94761.00;;;;7427520;19;20141;-75
2022/07/11 06:35:15;;;;;;;1.45;1.20;;;;;17.60;94755.00;;;;7421788;19;20486;-74
2022/07/11 06:37:49;;;;;;;1.30;1.20;;;;;17.70;94748.00;;;;7398069;19;20570;-75
2022/07/11 06:40:17;;;;;;;1.42;1.30;;;;;17.60;94753.00;;;;7394506;19;20498;-76
2022/07/11 06:42:45;;;;;;;1.67;1.27;;;;;17.80;94757.00;;;;7398004;19;20640;-74
2022/07/11 06:45:19;;;;;;;1.00;1.00;;;;;18.00;94756.00;;;;7396682;19;20475;-74
2022/07/11 06:47:47;;;;;;;1.90;1.10;;;;;18.30;94760.00;;;;7396622;19;20153;-75
2022/07/11 06:50:14;;;;;;;0.95;0.80;;;;;18.30;94756.00;;;;7396162;19;20163;-74
2022/07/11 06:52:55;;;;;;;0.63;0.63;;;;;18.30;94755.00;;;;7397655;19;20147;-75
2022/07/11 06:55:23;;;;;;;1.75;0.90;;;;;18.60;94754.00;;;;7394547;19;20167;-74
2022/07/11 06:57:56;;;;;;;0.90;0.90;;;;;18.50;94762.00;;;;7398515;19;20576;-76
2022/07/11 07:00:45;;;;;;;0.73;0.73;;;;;18.70;94755.00;;;;7398703;19;20785;-76
2022/07/11 07:03:20;;;;;;;1.00;1.00;;;;;18.80;94761.00;;;;7393898;19;20144;-75
2022/07/11 07:05:48;;;;;;;1.13;1.00;;;;;18.70;94758.00;;;;7395178;19;20647;-77
2022/07/11 07:08:17;;;;;;;1.25;1.00;;;;;18.90;94756.00;;;;7397948;19;20133;-75
2022/07/11 07:10:52;;;;;;;1.30;1.20;;;;;19.30;94761.00;;;;7397488;19;20144;-75
2022/07/11 07:13:23;;;;;;;1.08;1.00;;;;;19.30;94756.00;;;;7395730;19;20139;-76
2022/07/11 07:15:53;;;;;;;1.33;1.23;;;;;19.30;94758.00;;;;7396997;19;20229;-75
2022/07/11 07:18:26;;;;;;;1.70;1.33;;;;;18.70;94752.00;;;;7399147;19;20165;-76
2022/07/11 07:20:54;;;;;;;1.30;1.20;;;;;19.00;94762.00;;;;7395991;19;20153;-75
2022/07/11 07:23:22;;;;;;;1.55;1.33;;;;;19.10;94763.00;;;;7395116;19;20599;-75
2022/07/11 07:26:10;;;;;;;1.13;1.08;;;;;19.00;94763.00;;;;7392269;19;20487;-75
2022/07/11 07:28:46;;;;;;;1.30;1.17;;;;;19.40;94749.00;;;;7398554;19;20133;-75
2022/07/11 07:31:20;;;;;;;1.38;1.20;;;;;19.40;94758.00;;;;7393772;19;20902;-76
2022/07/11 07:33:49;;;;;;;1.98;1.42;;;;;19.10;94764.00;;;;7394312;19;20129;-76
2022/07/11 07:36:17;;;;;;;2.75;1.05;;;;;19.10;94755.00;;;;7394977;19;20216;-75
2022/07/11 07:38:50;;;;;;;1.20;1.10;;;;;19.30;94766.00;;;;7398718;19;20117;-76
2022/07/11 07:41:18;;;;;;;0.82;0.82;;;;;18.90;94769.00;;;;7391733;19;20149;-76
2022/07/11 07:43:49;;;;;;;0.80;0.80;;;;;18.30;94756.00;;;;7393529;19;20141;-75
2022/07/11 07:46:23;;;;;;;0.95;0.85;;;;;18.60;94750.00;;;;7393585;19;20591;-74
2022/07/11 07:48:51;;;;;;;2.53;1.10;;;;;19.30;94749.00;;;;7392636;19;20160;-75
2022/07/11 07:51:20;;;;;;;3.05;1.13;;;;;19.90;94749.00;;;;7392456;19;20753;-74
2022/07/11 07:53:54;;;;;;;2.10;1.15;;;;;20.30;94740.00;;;;7394937;19;20136;-75
2022/07/11 07:56:24;;;;;;;1.00;1.00;;;;;20.80;94732.00;;;;7393655;19;20603;-75
2022/07/11 07:58:52;;;;;;;3.17;1.00;;;;;20.80;94746.00;;;;7395582;19;20148;-75
2022/07/11 08:01:35;;;;;;;0.28;0.28;;;;;19.80;94750.00;;;;7392394;19;20134;-75
2022/07/11 08:04:07;;;;;;;0.60;0.60;;;;;20.20;94735.00;;;;7393442;19;20154;-74
2022/07/11 08:06:42;;;;;;;0.60;0.60;;;;;20.20;94743.00;;;;7394888;19;20156;-75
2022/07/11 08:09:10;;;;;;;1.05;0.70;;;;;20.30;94747.00;;;;7396812;19;20128;-75
2022/07/11 08:11:38;;;;;;;0.38;0.38;;;;;20.10;94753.00;;;;7391561;19;20145;-75
2022/07/11 08:14:12;;;;;;;0.20;0.20;;;;;19.90;94754.00;;;;7393412;19;20219;-74
2022/07/11 08:16:41;;;;;;;0.35;0.35;;;;;19.40;94748.00;;;;7396766;19;20129;-74
2022/07/11 08:19:11;;;;;;;0.30;0.30;;;;;20.10;94740.00;;;;7395143;19;20144;-73
2022/07/11 08:21:45;;;;;;;0.38;0.38;;;;;20.00;94756.00;;;;7391910;19;20938;-74
2022/07/11 08:24:13;;;;;;;0.57;0.57;;;;;19.60;94755.00;;;;7395682;19;20133;-73
2022/07/11 08:26:47;;;;;;;0.50;0.50;;;;;19.20;94759.00;;;;7390074;19;20180;-74
2022/07/11 08:29:41;;;;;;;0.45;0.40;;;;;19.10;94760.00;;;;7392841;19;20484;-75
2022/07/11 08:32:11;;;;;;;0.50;0.50;;;;;19.40;94757.00;;;;7391867;19;20866;-74
2022/07/11 08:34:46;;;;;;;1.02;0.70;;;;;19.60;94747.00;;;;7394217;19;20529;-74
2022/07/11 08:37:13;;;;;;;0.90;0.90;;;;;20.00;94755.00;;;;7393158;19;20587;-74
2022/07/11 08:39:41;;;;;;;0.80;0.80;;;;;20.00;94759.00;;;;7391545;19;20212;-75
2022/07/11 08:42:19;;;;;;;0.90;0.80;;;;;20.40;94739.00;;;;7391202;19;20144;-76
2022/07/11 08:44:47;;;;;;;0.85;0.80;;;;;20.90;94736.00;;;;7395965;19;20133;-75
2022/07/11 08:47:14;;;;;;;0.70;0.70;;;;;21.70;94734.00;;;;7390230;19;20148;-75
2022/07/11 08:49:49;;;;;;;0.75;0.75;;;;;22.30;94733.00;;;;7392845;19;20695;-76
2022/07/11 08:52:19;;;;;;;1.05;1.00;;;;;22.50;94728.00;;;;7391661;19;20599;-74
2022/07/11 08:54:46;;;;;;;1.08;0.98;;;;;22.90;94730.00;;;;7393458;19;20156;-75
2022/07/11 08:57:20;;;;;;;1.58;0.95;;;;;22.90;94729.00;;;;7389411;19;20149;-75
2022/07/11 08:59:48;;;;;;;1.58;1.27;;;;;23.10;94727.00;;;;7390003;19;20208;-75
2022/07/11 09:02:17;;;;;;;1.35;1.20;;;;;22.60;94747.00;;;;7391524;19;20611;-75
2022/07/11 09:04:51;;;;;;;1.27;1.17;;;;;22.20;94729.00;;;;7395410;19;20610;-75
2022/07/11 09:07:19;;;;;;;1.30;1.20;;;;;21.70;94747.00;;;;7390415;19;20599;-75
2022/07/11 09:09:47;;;;;;;1.50;1.30;;;;;21.10;94755.00;;;;7391609;19;20502;-74
2022/07/11 09:12:21;;;;;;;1.58;1.48;;;;;21.60;94741.00;;;;7392807;19;20137;-74
2022/07/11 09:14:51;;;;;;;2.28;1.10;;;;;21.40;94748.00;;;;7393903;19;20140;-75
2022/07/11 09:17:27;;;;;;;1.60;1.30;;;;;20.90;94750.00;;;;7389850;19;20145;-75
2022/07/11 09:20:01;;;;;;;1.30;1.20;;;;;20.90;94757.00;;;;7392774;19;20135;-75
2022/07/11 09:25:31;;;;;;;2.60;1.50;;;;;20.80;94752.00;;;;7387764;19;20133;-76
2022/07/11 09:28:05;;;;;;;2.20;1.20;;;;;20.90;94752.00;;;;7390682;19;20120;-75
2022/07/11 09:30:40;;;;;;;2.38;1.50;;;;;21.10;94730.00;;;;7391083;19;20168;-75
2022/07/11 09:33:12;;;;;;;1.40;1.30;;;;;22.20;94720.00;;;;7393699;19;20147;-75
2022/07/11 09:35:54;;;;;;;1.88;1.73;;;;;23.40;94732.00;;;;7392225;19;20150;-75
2022/07/11 09:38:24;;;;;;;1.90;1.40;;;;;23.30;94729.00;;;;7392404;19;20627;-75
2022/07/11 09:41:15;;;;;;;3.20;1.58;;;;;23.70;94731.00;;;;7393704;19;20136;-76
2022/07/11 09:43:43;;;;;;;1.50;1.33;;;;;23.80;94731.00;;;;7390447;19;20133;-75
2022/07/11 09:46:24;;;;;;;1.98;1.70;;;;;24.10;94724.00;;;;7390151;19;20238;-77
2022/07/11 09:48:54;;;;;;;1.60;1.45;;;;;24.80;94729.00;;;;7391560;19;20612;-77
2022/07/11 09:51:31;;;;;;;1.90;1.67;;;;;24.80;94742.00;;;;7390195;19;20138;-77
2022/07/11 09:53:59;;;;;;;2.40;1.73;;;;;24.10;94753.00;;;;7391004;19;20149;-77
2022/07/11 09:56:30;;;;;;;2.45;1.73;;;;;23.70;94751.00;;;;7390878;19;20149;-76
2022/07/11 09:59:23;;;;;;;1.85;1.55;;;;;22.70;94761.00;;;;7388382;19;20132;-76
2022/07/11 10:01:50;;;;;;;2.58;1.55;;;;;22.30;94764.00;;;;7388347;19;20136;-75
2022/07/11 10:04:25;;;;;;;1.88;1.60;;;;;22.00;94763.00;;;;7391208;19;20512;-76
2022/07/11 10:06:53;;;;;;;2.33;2.00;;;;;21.70;94761.00;;;;7391034;19;20140;-78
2022/07/11 10:09:22;;;;;;;2.70;1.75;;;;;21.80;94752.00;;;;7387981;19;20163;-75
2022/07/11 10:11:57;;;;;;;1.90;1.70;;;;;22.10;94745.00;;;;7391360;19;20154;-75
2022/07/11 10:14:25;;;;;;;1.98;1.77;;;;;22.40;94758.00;;;;7399930;19;20547;-76
2022/07/11 10:17:01;;;;;;;2.50;1.70;;;;;22.70;94773.00;;;;7399374;19;20226;-74
2022/07/11 10:19:51;;;;;;;2.00;1.63;;;;;21.90;94779.00;;;;7394107;19;20637;-74
2022/07/11 10:22:50;;;;;;;2.63;2.13;;;;;21.60;94773.00;;;;7398080;19;20129;-76
2022/07/11 10:26:09;;;;;;;2.17;2.00;;;;;22.10;94760.00;;;;7394787;19;20444;-76
2022/07/11 10:28:56;;;;;;;2.03;1.83;;;;;22.00;94766.00;;;;7398057;19;20164;-76
2022/07/11 10:31:31;;;;;;;1.98;1.88;;;;;22.30;94761.00;;;;7396750;19;20472;-76
2022/07/11 10:34:26;;;;;;;2.45;2.00;;;;;23.20;94753.00;;;;7396555;19;20224;-76
2022/07/11 10:37:02;;;;;;;3.92;1.92;;;;;23.60;94746.00;;;;7400348;19;20184;-74
2022/07/11 10:39:37;;;;;;;1.88;1.63;;;;;24.10;94745.00;;;;7396249;19;20487;-75
2022/07/11 10:42:21;;;;;;;2.03;1.73;;;;;23.90;94744.00;;;;7398586;19;20150;-75
2022/07/11 10:44:54;;;;;;;2.65;1.83;;;;;23.30;94770.00;;;;7398661;19;20606;-75
2022/07/11 10:47:35;;;;;;;2.00;1.83;;;;;22.60;94776.00;;;;7393730;19;20675;-75
2022/07/11 10:50:12;;;;;;;2.03;1.80;;;;;22.00;94775.00;;;;7395741;19;20200;-75
2022/07/11 10:52:49;;;;;;;2.60;1.70;;;;;22.00;94760.00;;;;7398157;19;20125;-74
2022/07/11 10:55:31;;;;;;;2.00;1.65;;;;;23.40;94740.00;;;;7396933;19;20611;-76
2022/07/11 10:58:29;;;;;;;2.05;1.85;;;;;24.10;94769.00;;;;7398236;19;20146;-76
2022/07/11 11:01:14;;;;;;;2.33;1.90;;;;;24.10;94747.00;;;;7396043;19;20157;-75
2022/07/11 11:03:49;;;;;;;1.85;1.75;;;;;24.50;94754.00;;;;7395673;19;20153;-75
2022/07/11 11:06:20;;;;;;;3.25;1.88;;;;;24.40;94763.00;;;;7394680;19;20590;-75
2022/07/11 11:08:48;;;;;;;2.30;2.08;;;;;23.60;94772.00;;;;7397025;19;20618;-76
2022/07/11 11:11:23;;;;;;;2.42;1.70;;;;;23.20;94783.00;;;;7393004;19;20231;-75
2022/07/11 11:14:21;;;;;;;3.08;1.80;;;;;22.70;94753.00;;;;7395472;19;20470;-74
2022/07/11 11:17:17;;;;;;;1.85;1.60;;;;;24.20;94743.00;;;;7393740;19;20137;-77
2022/07/11 11:19:52;;;;;;;1.75;1.65;;;;;24.80;94737.00;;;;7391573;19;20197;-74
2022/07/11 11:22:27;;;;;;;2.95;1.83;;;;;25.20;94745.00;;;;7386362;19;20799;-76
2022/07/11 11:24:56;;;;;;;2.00;1.63;;;;;25.50;94756.00;;;;7392416;19;20136;-76
2022/07/11 11:28:04;;;;;;;2.08;1.70;;;;;25.00;94756.00;;;;7389126;19;20268;-76
2022/07/11 11:30:38;;;;;;;3.10;2.17;;;;;24.80;94757.00;;;;7390005;19;20133;-76
2022/07/11 11:33:16;;;;;;;3.63;1.80;;;;;25.00;94746.00;;;;7395424;19;20930;-75
2022/07/11 11:36:09;;;;;;;2.35;1.73;;;;;25.20;94747.00;;;;7394316;19;20156;-76
2022/07/11 11:38:40;;;;;;;2.47;1.80;;;;;25.40;94761.00;;;;7396219;19;20619;-75
2022/07/11 11:41:25;;;;;;;2.00;1.80;;;;;25.30;94742.00;;;;7394769;19;20120;-75
2022/07/11 11:43:55;;;;;;;3.47;1.80;;;;;25.40;94752.00;;;;7395322;19;20128;-75
2022/07/11 11:46:33;;;;;;;1.92;1.75;;;;;24.50;94757.00;;;;7393797;19;20505;-75
2022/07/11 11:49:03;;;;;;;2.05;1.80;;;;;23.70;94757.00;;;;7397135;19;20227;-76
2022/07/11 11:51:39;;;;;;;2.25;1.70;;;;;22.90;94771.00;;;;7394750;19;20204;-74
2022/07/11 11:54:06;;;;;;;2.22;1.92;;;;;23.10;94771.00;;;;7394704;19;20137;-75
2022/07/11 11:56:36;;;;;;;1.83;1.65;;;;;23.30;94752.00;;;;7396138;19;20207;-75
2022/07/11 11:59:12;;;;;;;1.98;1.70;;;;;24.20;94736.00;;;;7397265;19;20151;-76
2022/07/11 12:01:47;;;;;;;2.65;1.80;;;;;25.40;94734.00;;;;7392074;19;20140;-75
2022/07/11 12:04:22;;;;;;;2.05;1.50;;;;;26.00;94742.00;;;;7395227;19;20135;-74
2022/07/11 12:06:50;;;;;;;2.35;2.10;;;;;25.90;94735.00;;;;7393135;19;20149;-75
2022/07/11 12:09:22;;;;;;;1.98;1.75;;;;;25.50;94731.00;;;;7392883;19;20172;-73
2022/07/11 12:14:42;;;;;;;2.53;2.08;;;;;25.20;94753.00;;;;7394553;19;20144;-76
2022/07/11 12:17:23;;;;;;;3.17;1.60;;;;;24.10;94760.00;;;;7393751;19;20155;-76
2022/07/11 12:19:52;;;;;;;4.22;1.70;;;;;23.70;94765.00;;;;7394261;19;20487;-75
2022/07/11 12:22:26;;;;;;;1.50;1.40;;;;;23.50;94758.00;;;;7393937;19;20132;-76
2022/07/11 12:24:54;;;;;;;1.65;1.55;;;;;23.60;94759.00;;;;7392200;19;20550;-76
2022/07/11 12:27:24;;;;;;;1.70;1.60;;;;;23.60;94753.00;;;;7388703;19;20213;-76
2022/07/11 12:29:58;;;;;;;1.73;1.63;;;;;24.00;94749.00;;;;7392649;19;20135;-75
2022/07/11 12:32:25;;;;;;;3.15;1.48;;;;;24.60;94729.00;;;;7392097;19;20153;-76
2022/07/11 12:34:53;;;;;;;1.95;1.65;;;;;24.70;94753.00;;;;7392738;19;20136;-74
2022/07/11 12:37:38;;;;;;;1.77;1.63;;;;;25.70;94732.00;;;;7390775;19;20125;-76
2022/07/11 12:40:07;;;;;;;1.80;1.42;;;;;26.30;94739.00;;;;7389356;19;20188;-73
2022/07/11 12:42:46;;;;;;;2.58;1.83;;;;;25.60;94730.00;;;;7394725;19;20148;-76
2022/07/11 12:45:15;;;;;;;2.08;1.88;;;;;25.50;94749.00;;;;7391006;19;20133;-76
2022/07/11 12:47:52;;;;;;;4.35;1.67;;;;;25.30;94746.00;;;;7391447;19;20134;-76
2022/07/11 12:50:26;;;;;;;2.10;1.90;;;;;24.30;94735.00;;;;7393453;19;20582;-74
2022/07/11 12:53:01;;;;;;;1.90;1.80;;;;;24.00;94733.00;;;;7394744;19;20180;-74